Time;durP1;ratioP1;P1;durP2;ratioP2;P2;SDS_P1;SDS_P2;PMS_P1;PMS_P2;Temp;Humidity;BMP_temperature;BMP_pressure;BME280_temperature;BME280_humidity;BME280_pressure;Samples;Min_cycle;Max_cycle;Signal;HPM_P1;HPM_P2
2022/12/09 00:01:07;;;;;;;46.10;28.23;;;7.10;99.90;;;;;;5064768;28;20032;-79
2022/12/09 00:03:33;;;;;;;41.20;26.70;;;7.00;99.90;;;;;;5071331;28;20074;-79
2022/12/09 00:06:04;;;;;;;40.03;25.48;;;7.10;99.90;;;;;;5062599;28;20028;-79
2022/12/09 00:08:30;;;;;;;55.67;28.08;;;7.10;99.90;;;;;;5069347;28;20028;-79
2022/12/09 00:10:55;;;;;;;45.45;28.35;;;7.10;99.90;;;;;;5073853;28;20028;-79
2022/12/09 00:13:21;;;;;;;49.40;28.02;;;7.10;99.90;;;;;;5068971;28;20025;-78
2022/12/09 00:15:47;;;;;;;55.88;28.23;;;7.10;99.90;;;;;;5071752;28;20020;-79
2022/12/09 00:18:13;;;;;;;45.60;28.75;;;7.10;99.90;;;;;;5074708;28;20501;-79
2022/12/09 00:20:39;;;;;;;55.35;26.90;;;7.00;99.90;;;;;;5069092;28;20017;-79
2022/12/09 00:23:05;;;;;;;46.63;28.02;;;7.10;99.90;;;;;;5071373;28;20025;-79
2022/12/09 00:25:31;;;;;;;45.95;27.10;;;7.00;99.90;;;;;;5070993;28;20037;-79
2022/12/09 00:27:57;;;;;;;46.42;27.65;;;7.10;99.90;;;;;;5072055;28;20024;-79
2022/12/09 00:30:22;;;;;;;45.13;27.58;;;7.00;99.90;;;;;;5069364;28;20017;-79
2022/12/09 00:32:48;;;;;;;54.70;29.23;;;7.10;99.90;;;;;;5075994;28;20393;-79
2022/12/09 00:35:15;;;;;;;51.40;28.70;;;7.00;99.90;;;;;;5069332;28;20073;-79
2022/12/09 00:37:40;;;;;;;51.40;28.83;;;7.10;99.90;;;;;;5076875;28;20396;-80
2022/12/09 00:40:07;;;;;;;51.63;27.35;;;7.10;99.90;;;;;;5069357;28;20025;-79
2022/12/09 00:42:33;;;;;;;48.67;27.85;;;7.00;99.90;;;;;;5062898;28;20108;-79
2022/12/09 00:44:58;;;;;;;47.92;28.80;;;7.10;99.90;;;;;;5079173;28;20047;-78
2022/12/09 00:47:24;;;;;;;50.47;29.25;;;7.10;99.90;;;;;;5067487;28;20583;-78
2022/12/09 00:49:50;;;;;;;52.13;28.40;;;7.00;99.90;;;;;;5073829;28;20028;-78
2022/12/09 00:52:16;;;;;;;44.85;26.13;;;7.00;99.90;;;;;;5069249;28;20064;-79
2022/12/09 00:54:42;;;;;;;48.17;28.48;;;7.00;99.90;;;;;;5071640;28;20099;-79
2022/12/09 00:57:08;;;;;;;62.42;29.58;;;7.10;99.90;;;;;;5068722;28;20039;-79
2022/12/09 00:59:33;;;;;;;47.72;27.23;;;7.00;99.90;;;;;;5069940;28;20017;-79
2022/12/09 01:01:59;;;;;;;60.15;28.05;;;7.00;99.90;;;;;;5068376;28;20040;-79
2022/12/09 01:04:25;;;;;;;48.67;25.75;;;7.00;99.90;;;;;;5077317;28;20032;-79
2022/12/09 01:06:51;;;;;;;59.80;27.30;;;7.10;99.90;;;;;;5067370;28;20550;-79
2022/12/09 01:09:17;;;;;;;54.00;28.23;;;7.00;99.90;;;;;;5068303;28;20021;-79
2022/12/09 01:11:43;;;;;;;55.13;28.42;;;7.00;99.90;;;;;;5064240;28;20087;-79
2022/12/09 01:14:11;;;;;;;52.05;31.60;;;7.00;99.90;;;;;;5073599;28;20021;-78
2022/12/09 01:16:36;;;;;;;53.35;31.40;;;7.00;99.90;;;;;;5070369;28;20055;-79
2022/12/09 01:19:06;;;;;;;57.42;31.63;;;7.00;99.90;;;;;;5074858;28;20464;-78
2022/12/09 01:21:32;;;;;;;51.35;29.27;;;6.90;99.90;;;;;;5067442;28;20047;-78
2022/12/09 01:23:58;;;;;;;54.10;29.35;;;6.90;99.90;;;;;;5075133;28;20084;-79
2022/12/09 01:26:24;;;;;;;58.75;28.65;;;6.90;99.90;;;;;;5065032;28;20130;-79
2022/12/09 01:28:51;;;;;;;58.78;27.92;;;6.90;99.90;;;;;;5074669;28;20025;-79
2022/12/09 01:31:23;;;;;;;60.45;30.33;;;6.90;99.90;;;;;;5069007;28;20044;-79
2022/12/09 01:33:49;;;;;;;56.30;28.65;;;6.90;99.90;;;;;;5073734;28;20024;-79
2022/12/09 01:36:21;;;;;;;59.33;30.20;;;6.90;99.90;;;;;;5063221;28;20055;-79
2022/12/09 01:38:47;;;;;;;56.25;29.77;;;6.80;99.90;;;;;;5072787;28;20059;-78
2022/12/09 01:41:15;;;;;;;58.67;30.27;;;6.80;99.90;;;;;;5064620;28;20481;-79
2022/12/09 01:43:41;;;;;;;57.72;30.35;;;6.80;99.90;;;;;;5070292;28;20025;-79
2022/12/09 01:46:07;;;;;;;68.57;29.20;;;6.80;99.90;;;;;;5060216;28;20029;-79
2022/12/09 01:48:37;;;;;;;63.28;29.33;;;6.80;99.90;;;;;;5058909;28;20482;-79
2022/12/09 01:51:11;;;;;;;59.17;28.95;;;6.80;99.90;;;;;;5070664;28;20044;-79
2022/12/09 01:53:38;;;;;;;60.55;29.88;;;6.80;99.90;;;;;;5063261;28;20457;-79
2022/12/09 01:56:16;;;;;;;73.97;34.83;;;6.80;99.90;;;;;;5060629;28;20079;-79
2022/12/09 01:58:42;;;;;;;57.55;28.95;;;6.80;99.90;;;;;;5067902;28;20097;-80
2022/12/09 02:01:08;;;;;;;65.63;31.55;;;6.80;99.90;;;;;;5062611;28;20071;-80
2022/12/09 02:03:34;;;;;;;56.67;30.13;;;6.80;99.90;;;;;;5067254;28;20028;-79
2022/12/09 02:06:00;;;;;;;56.35;31.55;;;6.80;99.90;;;;;;5066584;28;20033;-79
2022/12/09 02:08:26;;;;;;;68.20;30.95;;;6.80;99.90;;;;;;5072341;28;20396;-79
2022/12/09 02:11:32;;;;;;;57.63;30.92;;;6.80;99.90;;;;;;5063112;28;20124;-79
2022/12/09 02:14:25;;;;;;;64.55;31.17;;;6.80;99.90;;;;;;5074746;28;20025;-79
2022/12/09 02:17:16;;;;;;;68.50;29.65;;;6.80;99.90;;;;;;5065145;28;20040;-79
2022/12/09 02:20:02;;;;;;;67.18;30.38;;;6.90;99.90;;;;;;5070475;28;20088;-79
2022/12/09 02:22:37;;;;;;;69.68;30.85;;;6.90;99.90;;;;;;5068863;28;20111;-79
2022/12/09 02:25:33;;;;;;;64.13;30.92;;;6.90;99.90;;;;;;5070044;28;20493;-79
2022/12/09 02:28:15;;;;;;;58.35;30.08;;;6.90;99.90;;;;;;5035490;28;20128;-79
2022/12/09 02:30:58;;;;;;;70.95;32.50;;;6.90;99.90;;;;;;5065170;28;20439;-79
2022/12/09 02:34:10;;;;;;;58.47;30.05;;;6.90;99.90;;;;;;5069898;28;20031;-79
2022/12/09 02:36:52;;;;;;;59.80;31.27;;;6.90;99.90;;;;;;5055479;28;20041;-79
2022/12/09 02:39:25;;;;;;;71.70;31.60;;;6.90;99.90;;;;;;5071625;28;20036;-79
2022/12/09 02:41:51;;;;;;;62.80;31.20;;;6.80;99.90;;;;;;5063924;28;20032;-79
2022/12/09 02:44:21;;;;;;;63.28;31.02;;;6.90;99.90;;;;;;5074165;28;20020;-80
2022/12/09 02:46:48;;;;;;;63.42;31.60;;;6.80;99.90;;;;;;5065756;28;20033;-80
2022/12/09 02:49:15;;;;;;;65.32;30.27;;;6.80;99.90;;;;;;5062525;28;20435;-80
2022/12/09 02:51:42;;;;;;;75.85;32.92;;;6.90;99.90;;;;;;5069674;28;20106;-80
2022/12/09 02:54:14;;;;;;;64.47;31.48;;;6.90;99.90;;;;;;5063075;28;20080;-79
2022/12/09 02:56:45;;;;;;;55.33;30.15;;;6.90;99.90;;;;;;5069581;28;20032;-79
2022/12/09 02:59:11;;;;;;;59.63;31.83;;;6.90;99.90;;;;;;5073958;28;20020;-78
2022/12/09 03:01:56;;;;;;;66.57;30.45;;;6.90;99.90;;;;;;5068804;28;20055;-80
2022/12/09 03:04:25;;;;;;;63.13;30.25;;;6.90;99.90;;;;;;5063633;28;20036;-79
2022/12/09 03:06:52;;;;;;;61.40;32.00;;;6.90;99.90;;;;;;5064888;28;20557;-80
2022/12/09 03:09:43;;;;;;;59.30;29.67;;;6.90;99.90;;;;;;5064829;28;20493;-80
2022/12/09 03:12:10;;;;;;;;;;;6.90;99.90;;;;;;5064314;28;20382;-80
2022/12/09 03:14:45;;;;;;;58.00;27.63;;;6.90;99.90;;;;;;5070752;28;19909;-79
2022/12/09 03:17:18;;;;;;;61.60;32.50;;;6.90;99.90;;;;;;5065732;28;20037;-80
2022/12/09 03:19:46;;;;;;;54.40;27.42;;;6.90;99.90;;;;;;5066471;28;20016;-79
2022/12/09 03:22:16;;;;;;;59.83;29.55;;;6.90;99.90;;;;;;5068518;28;20028;-80
2022/12/09 03:24:52;;;;;;;61.78;30.83;;;7.00;99.90;;;;;;5073887;28;20025;-80
2022/12/09 03:27:24;;;;;;;56.75;30.23;;;7.00;99.90;;;;;;5073491;28;20041;-80
2022/12/09 03:29:51;;;;;;;54.97;31.73;;;7.00;99.90;;;;;;5073543;28;20028;-80
2022/12/09 03:32:21;;;;;;;66.38;31.30;;;7.00;99.90;;;;;;5066033;28;20553;-80
2022/12/09 03:34:51;;;;;;;57.43;29.43;;;7.00;99.90;;;;;;5066573;28;20507;-80
2022/12/09 03:37:19;;;;;;;53.40;28.02;;;7.00;99.90;;;;;;5069067;28;20333;-80
2022/12/09 03:39:46;;;;;;;49.55;27.67;;;7.00;99.90;;;;;;5076656;28;20059;-80
2022/12/09 03:42:29;;;;;;;51.22;28.85;;;7.00;99.90;;;;;;5068781;28;20025;-80
2022/12/09 03:45:06;;;;;;;61.00;30.33;;;7.00;99.90;;;;;;5075226;28;20021;-80
2022/12/09 03:47:32;;;;;;;50.83;30.08;;;7.00;99.90;;;;;;5069176;28;20027;-79
2022/12/09 03:49:58;;;;;;;50.85;27.88;;;7.00;99.90;;;;;;5071974;28;20406;-79
2022/12/09 03:52:31;;;;;;;48.08;26.75;;;7.00;99.90;;;;;;5067365;28;20040;-80
2022/12/09 03:55:01;;;;;;;49.35;26.55;;;7.00;99.90;;;;;;5069900;28;20021;-79
2022/12/09 03:57:28;;;;;;;59.03;30.27;;;7.00;99.90;;;;;;5065086;28;20040;-80
2022/12/09 03:59:58;;;;;;;58.88;31.10;;;7.10;99.90;;;;;;5065670;28;20544;-79
2022/12/09 04:02:24;;;;;;;63.45;31.60;;;7.10;99.90;;;;;;5069641;28;20025;-79
2022/12/09 04:04:50;;;;;;;60.50;29.90;;;7.10;99.90;;;;;;5058498;28;20485;-79
2022/12/09 04:07:17;;;;;;;54.03;28.88;;;7.10;99.90;;;;;;5071825;28;20032;-79
2022/12/09 04:09:43;;;;;;;66.70;31.83;;;7.10;99.90;;;;;;5072966;28;20404;-79
2022/12/09 04:12:09;;;;;;;56.53;28.55;;;7.10;99.90;;;;;;5071131;28;20053;-80
2022/12/09 04:14:35;;;;;;;53.17;28.40;;;7.10;99.90;;;;;;5074014;28;20032;-80
2022/12/09 04:17:01;;;;;;;59.90;29.42;;;7.10;99.90;;;;;;5069412;28;20020;-80
2022/12/09 04:19:27;;;;;;;48.90;28.40;;;7.10;99.90;;;;;;5074930;28;20052;-80
2022/12/09 04:21:53;;;;;;;54.20;30.10;;;7.10;99.90;;;;;;5067487;28;20027;-80
2022/12/09 04:24:19;;;;;;;47.55;28.08;;;7.10;99.90;;;;;;5063970;28;20112;-80
2022/12/09 04:26:45;;;;;;;49.03;25.63;;;7.10;99.90;;;;;;5060266;28;20060;-80
2022/12/09 04:29:11;;;;;;;49.17;28.42;;;7.20;99.90;;;;;;5074532;28;20035;-79
2022/12/09 04:31:38;;;;;;;50.20;27.27;;;7.10;99.90;;;;;;5063672;28;20053;-80
2022/12/09 04:34:04;;;;;;;56.17;29.48;;;7.20;99.90;;;;;;5074975;28;20085;-80
2022/12/09 04:36:30;;;;;;;51.28;26.83;;;7.10;99.90;;;;;;5062195;28;20059;-79
2022/12/09 04:38:55;;;;;;;53.85;30.10;;;7.20;99.90;;;;;;5072289;28;20070;-80
2022/12/09 04:41:22;;;;;;;46.47;27.38;;;7.20;99.90;;;;;;5060996;28;20083;-79
2022/12/09 04:43:48;;;;;;;52.60;28.95;;;7.20;99.90;;;;;;5068664;28;20051;-79
2022/12/09 04:46:15;;;;;;;46.58;27.73;;;7.20;99.90;;;;;;5071372;28;20116;-79
2022/12/09 04:48:42;;;;;;;51.90;26.83;;;7.20;99.90;;;;;;5058939;28;20033;-79
2022/12/09 04:51:09;;;;;;;48.78;27.38;;;7.20;99.90;;;;;;5070609;28;20549;-79
2022/12/09 04:53:35;;;;;;;49.80;27.20;;;7.20;99.90;;;;;;5071069;28;20039;-80
2022/12/09 04:56:06;;;;;;;48.63;27.10;;;7.10;99.90;;;;;;5069765;28;20039;-80
2022/12/09 04:58:33;;;;;;;48.67;27.55;;;7.20;99.90;;;;;;5073439;28;20465;-80
2022/12/09 05:01:08;;;;;;;48.40;27.98;;;7.20;99.90;;;;;;5061087;28;20021;-79
2022/12/09 05:03:34;;;;;;;52.42;27.02;;;7.20;99.90;;;;;;5073748;28;20067;-80
2022/12/09 05:06:06;;;;;;;59.80;28.90;;;7.20;99.90;;;;;;5064203;28;20480;-80
2022/12/09 05:08:32;;;;;;;52.03;27.15;;;7.20;99.90;;;;;;5070508;28;20396;-79
2022/12/09 05:10:58;;;;;;;57.00;28.30;;;7.20;99.90;;;;;;5069506;28;20051;-80
2022/12/09 05:13:26;;;;;;;51.13;27.52;;;7.20;99.90;;;;;;5070899;28;20102;-80
2022/12/09 05:16:03;;;;;;;52.53;28.67;;;7.20;99.90;;;;;;5069241;28;20059;-79
2022/12/09 05:18:29;;;;;;;53.15;27.08;;;7.20;99.90;;;;;;5073149;28;20031;-80
2022/12/09 05:20:55;;;;;;;56.90;30.17;;;7.20;99.90;;;;;;5068546;28;20021;-79
2022/12/09 05:23:21;;;;;;;69.13;31.52;;;7.20;99.90;;;;;;5073038;28;20021;-80
2022/12/09 05:25:47;;;;;;;65.05;29.35;;;7.20;99.90;;;;;;5068043;28;20091;-80
2022/12/09 05:28:13;;;;;;;57.83;29.58;;;7.20;99.90;;;;;;5072680;28;20024;-80
2022/12/09 05:30:38;;;;;;;61.47;29.73;;;7.20;99.90;;;;;;5069325;28;20024;-80
2022/12/09 05:33:04;;;;;;;72.88;29.95;;;7.20;99.90;;;;;;5070825;28;20488;-80
2022/12/09 05:35:30;;;;;;;87.55;31.35;;;7.20;99.90;;;;;;5065861;28;20033;-80
2022/12/09 05:37:56;;;;;;;69.18;28.30;;;7.20;99.90;;;;;;5074557;28;20031;-80
2022/12/09 05:40:22;;;;;;;70.07;30.20;;;7.20;99.90;;;;;;5076513;28;20440;-79
2022/12/09 05:42:48;;;;;;;66.65;31.92;;;7.30;99.90;;;;;;5060459;28;20013;-80
2022/12/09 05:45:14;;;;;;;80.30;34.42;;;7.30;99.90;;;;;;5069167;28;20520;-79
2022/12/09 05:47:40;;;;;;;75.72;35.25;;;7.30;99.90;;;;;;5059674;28;20024;-79
2022/12/09 05:50:07;;;;;;;80.88;33.20;;;7.30;99.90;;;;;;5066814;28;20021;-79
2022/12/09 05:52:35;;;;;;;77.75;32.10;;;7.20;99.90;;;;;;5061891;28;20048;-79
2022/12/09 05:55:06;;;;;;;78.15;29.65;;;7.30;99.90;;;;;;5072068;28;20031;-80
2022/12/09 05:57:35;;;;;;;84.18;30.77;;;7.30;99.90;;;;;;5071194;28;20029;-79
2022/12/09 06:00:03;;;;;;;90.65;31.48;;;7.30;99.90;;;;;;5068389;28;20085;-80
2022/12/09 06:02:30;;;;;;;75.00;33.80;;;7.30;99.90;;;;;;5071271;28;20025;-79
2022/12/09 06:04:56;;;;;;;80.20;33.47;;;7.20;99.90;;;;;;5062042;28;20033;-79
2022/12/09 06:07:21;;;;;;;90.82;35.35;;;7.30;99.90;;;;;;5069607;28;20033;-79
2022/12/09 06:09:47;;;;;;;79.68;31.65;;;7.30;99.90;;;;;;5071219;28;20024;-79
2022/12/09 06:12:13;;;;;;;101.25;36.83;;;7.30;99.90;;;;;;5063569;28;20077;-79
2022/12/09 06:14:39;;;;;;;97.10;36.85;;;7.30;99.90;;;;;;5071160;28;20035;-79
2022/12/09 06:17:05;;;;;;;97.13;35.53;;;7.30;99.90;;;;;;5067658;28;20058;-79
2022/12/09 06:19:30;;;;;;;86.07;33.90;;;7.30;99.90;;;;;;5061251;28;20029;-79
2022/12/09 06:21:56;;;;;;;94.57;34.70;;;7.30;99.90;;;;;;5065693;28;20021;-79
2022/12/09 06:24:22;;;;;;;115.82;34.20;;;7.30;99.90;;;;;;5060877;28;20053;-80
2022/12/09 06:26:51;;;;;;;111.45;36.63;;;7.30;99.90;;;;;;5063518;28;20495;-80
2022/12/09 06:29:18;;;;;;;95.50;32.88;;;7.30;99.90;;;;;;5061861;28;20045;-79
2022/12/09 06:31:44;;;;;;;97.00;35.00;;;7.30;99.90;;;;;;5061483;28;20075;-79
2022/12/09 06:34:10;;;;;;;121.88;36.75;;;7.30;99.90;;;;;;5071219;28;20052;-78
2022/12/09 06:36:36;;;;;;;106.65;36.20;;;7.30;99.90;;;;;;5063792;28;20480;-78
2022/12/09 06:39:03;;;;;;;110.53;36.22;;;7.30;99.90;;;;;;5071368;28;20024;-78
2022/12/09 06:41:29;;;;;;;160.75;37.63;;;7.30;99.90;;;;;;5071364;28;20021;-79
2022/12/09 06:43:58;;;;;;;111.60;36.15;;;7.30;99.90;;;;;;5065001;28;20029;-78
2022/12/09 06:46:25;;;;;;;111.15;34.53;;;7.30;99.90;;;;;;5059250;28;20028;-78
2022/12/09 06:48:53;;;;;;;121.45;39.47;;;7.30;99.90;;;;;;5057221;28;20025;-79
2022/12/09 06:51:20;;;;;;;104.57;35.55;;;7.40;99.90;;;;;;5067706;28;20520;-79
2022/12/09 06:53:46;;;;;;;154.85;38.47;;;7.30;99.90;;;;;;5065737;28;20072;-79
2022/12/09 06:56:13;;;;;;;107.38;36.05;;;7.30;99.90;;;;;;5061859;28;20070;-78
2022/12/09 06:58:41;;;;;;;114.68;37.83;;;7.30;99.90;;;;;;5070576;28;20440;-79
2022/12/09 07:01:20;;;;;;;130.02;36.22;;;7.40;99.90;;;;;;5062969;28;20035;-79
2022/12/09 07:03:49;;;;;;;99.43;35.78;;;7.30;99.90;;;;;;5070839;28;20017;-77
2022/12/09 07:06:42;;;;;;;105.75;34.45;;;7.30;99.90;;;;;;5062464;28;20040;-78
2022/12/09 07:09:11;;;;;;;105.70;34.45;;;7.30;99.90;;;;;;5075187;28;20090;-77
2022/12/09 07:11:37;;;;;;;115.50;34.78;;;7.30;99.90;;;;;;5071547;28;20052;-78
2022/12/09 07:14:03;;;;;;;97.13;33.63;;;7.30;99.90;;;;;;5065684;28;20036;-78
2022/12/09 07:16:29;;;;;;;103.65;33.97;;;7.30;99.90;;;;;;5064314;28;20033;-78
2022/12/09 07:18:55;;;;;;;103.28;36.53;;;7.40;99.90;;;;;;5072893;28;20074;-78
2022/12/09 07:21:22;;;;;;;107.20;34.30;;;7.40;99.90;;;;;;5063327;28;20017;-80
2022/12/09 07:23:48;;;;;;;95.68;34.20;;;7.40;99.90;;;;;;5073890;28;20095;-78
2022/12/09 07:26:15;;;;;;;112.25;36.55;;;7.40;99.90;;;;;;5069348;28;20044;-78
2022/12/09 07:28:41;;;;;;;93.72;33.67;;;7.40;99.90;;;;;;5060556;28;20035;-78
2022/12/09 07:31:24;;;;;;;95.72;36.42;;;7.40;99.90;;;;;;5069349;28;20033;-79
2022/12/09 07:33:51;;;;;;;99.00;34.05;;;7.40;99.90;;;;;;5073209;28;20051;-79
2022/12/09 07:36:18;;;;;;;387.92;230.90;;;7.40;99.90;;;;;;5070675;28;20124;-78
2022/12/09 07:38:44;;;;;;;204.15;94.97;;;7.40;99.90;;;;;;5072840;28;20026;-79
2022/12/09 07:41:19;;;;;;;105.63;42.92;;;7.40;99.90;;;;;;5070478;28;20587;-79
2022/12/09 07:43:45;;;;;;;295.63;127.78;;;7.50;99.90;;;;;;5071830;28;20021;-79
2022/12/09 07:46:13;;;;;;;390.75;204.27;;;7.50;99.90;;;;;;5071855;28;20028;-79
2022/12/09 07:48:39;;;;;;;135.65;53.85;;;7.50;99.90;;;;;;5070363;28;20083;-79
2022/12/09 07:51:05;;;;;;;108.63;42.40;;;7.60;99.90;;;;;;5063604;28;20028;-79
2022/12/09 07:53:34;;;;;;;105.38;42.25;;;7.60;99.90;;;;;;5073976;28;20028;-79
2022/12/09 07:56:05;;;;;;;95.78;36.65;;;7.60;99.90;;;;;;5071069;28;20051;-79
2022/12/09 07:58:31;;;;;;;234.10;84.35;;;7.60;99.90;;;;;;5067024;28;20017;-79
2022/12/09 08:01:04;;;;;;;253.07;89.80;;;7.60;99.90;;;;;;5070808;28;20099;-79
2022/12/09 08:03:30;;;;;;;700.25;380.35;;;7.70;99.90;;;;;;5069128;28;20075;-79
2022/12/09 08:05:55;;;;;;;219.18;92.68;;;7.70;99.90;;;;;;5073626;28;20029;-79
2022/12/09 08:08:21;;;;;;;489.60;228.43;;;7.70;99.90;;;;;;5072924;28;20017;-81
2022/12/09 08:10:48;;;;;;;402.35;178.40;;;7.70;99.90;;;;;;5070113;28;20020;-79
2022/12/09 08:13:14;;;;;;;95.95;53.53;;;7.70;99.90;;;;;;5073924;28;20028;-79
2022/12/09 08:15:40;;;;;;;52.20;26.83;;;7.70;99.90;;;;;;5071386;28;20028;-78
2022/12/09 08:18:07;;;;;;;58.38;35.58;;;7.80;99.90;;;;;;5069310;28;20033;-78
2022/12/09 08:20:33;;;;;;;37.58;19.30;;;7.80;99.90;;;;;;5071997;28;20024;-78
2022/12/09 08:22:59;;;;;;;40.20;20.50;;;7.90;99.90;;;;;;5065050;28;20075;-78
2022/12/09 08:25:25;;;;;;;44.97;20.00;;;7.90;99.90;;;;;;5069903;28;20044;-78
2022/12/09 08:27:50;;;;;;;40.53;20.33;;;8.00;99.90;;;;;;5072980;28;20024;-78
2022/12/09 08:30:16;;;;;;;43.45;21.90;;;8.10;99.90;;;;;;5075035;28;20030;-78
2022/12/09 08:32:42;;;;;;;38.65;21.35;;;8.20;99.90;;;;;;5089890;28;20037;-78
2022/12/09 08:35:13;;;;;;;37.75;20.05;;;8.30;99.90;;;;;;5074280;28;20078;-78
2022/12/09 08:37:41;;;;;;;28.90;14.63;;;8.30;99.90;;;;;;5072010;28;20516;-78
2022/12/09 08:40:07;;;;;;;30.23;17.02;;;8.40;99.90;;;;;;5073229;28;20025;-78
2022/12/09 08:42:33;;;;;;;24.05;15.38;;;8.40;99.90;;;;;;5070592;28;20021;-79
2022/12/09 08:44:59;;;;;;;33.60;18.35;;;8.40;99.90;;;;;;5071415;28;20031;-77
2022/12/09 08:47:26;;;;;;;28.33;16.42;;;8.40;99.90;;;;;;5073281;28;20062;-77
2022/12/09 08:49:52;;;;;;;30.65;16.67;;;8.40;99.90;;;;;;5072723;28;20036;-78
2022/12/09 08:52:18;;;;;;;29.17;16.15;;;8.50;99.90;;;;;;5066470;28;20055;-77
2022/12/09 08:54:44;;;;;;;29.48;15.85;;;8.60;99.90;;;;;;5073132;28;20055;-77
2022/12/09 08:57:10;;;;;;;26.55;15.65;;;8.50;99.90;;;;;;5073561;28;20504;-78
2022/12/09 08:59:36;;;;;;;34.85;19.80;;;8.60;99.90;;;;;;5070461;28;20394;-77
2022/12/09 09:02:02;;;;;;;79.95;56.33;;;8.60;99.90;;;;;;5071481;28;20025;-79
2022/12/09 09:04:30;;;;;;;40.00;23.90;;;8.70;99.90;;;;;;5075146;28;20024;-78
2022/12/09 09:06:56;;;;;;;31.33;17.23;;;8.70;99.90;;;;;;5070526;28;20031;-77
2022/12/09 09:09:22;;;;;;;24.80;15.15;;;8.80;99.90;;;;;;5073626;28;20040;-78
2022/12/09 09:11:48;;;;;;;34.03;20.90;;;8.80;99.90;;;;;;5071667;28;20036;-77
2022/12/09 09:14:14;;;;;;;79.38;50.03;;;8.80;99.90;;;;;;5075780;28;20033;-78
2022/12/09 09:16:42;;;;;;;38.95;24.00;;;8.80;99.90;;;;;;5071916;28;21055;-77
2022/12/09 09:19:16;;;;;;;25.70;15.00;;;8.70;99.90;;;;;;5071322;28;20028;-78
2022/12/09 09:21:42;;;;;;;20.70;13.38;;;8.80;99.90;;;;;;5071115;28;20405;-78
2022/12/09 09:24:10;;;;;;;23.02;13.48;;;8.90;99.90;;;;;;5074669;28;20052;-78
2022/12/09 09:26:39;;;;;;;19.52;12.20;;;9.00;99.90;;;;;;5070906;28;20552;-78
2022/12/09 09:29:05;;;;;;;18.80;12.25;;;9.00;99.90;;;;;;5068754;28;20032;-78
2022/12/09 09:31:31;;;;;;;34.78;21.80;;;9.10;99.90;;;;;;5070703;28;20688;-78
2022/12/09 09:33:57;;;;;;;42.15;27.38;;;9.10;99.90;;;;;;5075352;28;20066;-78
2022/12/09 09:36:23;;;;;;;17.60;11.88;;;9.20;99.90;;;;;;5071685;28;20036;-78
2022/12/09 09:38:52;;;;;;;18.90;13.23;;;9.30;99.90;;;;;;5072216;28;20111;-78
2022/12/09 09:41:26;;;;;;;14.05;10.13;;;9.40;99.90;;;;;;5072530;28;20036;-79
2022/12/09 09:43:53;;;;;;;179.93;99.93;;;9.30;99.90;;;;;;5072820;28;20395;-79
2022/12/09 09:46:42;;;;;;;25.48;16.90;;;9.30;99.90;;;;;;5069157;28;20483;-78
2022/12/09 09:49:27;;;;;;;30.15;20.23;;;9.40;99.90;;;;;;5063709;28;20021;-79
2022/12/09 09:51:54;;;;;;;17.13;12.32;;;9.50;99.90;;;;;;5070136;28;20056;-78
2022/12/09 09:54:19;;;;;;;17.38;12.52;;;9.50;99.90;;;;;;5074209;28;20032;-79
2022/12/09 09:57:19;;;;;;;20.40;14.70;;;9.40;99.90;;;;;;5068748;28;20528;-78
2022/12/09 10:00:24;;;;;;;19.08;11.73;;;9.50;99.90;;;;;;5071471;28;20020;-78
2022/12/09 10:02:53;;;;;;;16.90;12.52;;;9.50;99.90;;;;;;5061591;28;20033;-79
2022/12/09 10:05:49;;;;;;;20.85;13.55;;;9.70;99.90;;;;;;5072833;28;20388;-78
2022/12/09 10:08:28;;;;;;;20.75;13.45;;;9.70;99.90;;;;;;5068324;28;20396;-79
2022/12/09 10:11:15;;;;;;;14.40;11.52;;;9.90;99.90;;;;;;5069862;28;20035;-78
2022/12/09 10:14:14;;;;;;;17.15;13.50;;;9.90;99.90;;;;;;5072011;28;20025;-78
2022/12/09 10:16:44;;;;;;;17.42;13.15;;;10.10;99.90;;;;;;5066480;28;20120;-78
2022/12/09 10:19:30;;;;;;;17.70;12.80;;;10.20;99.90;;;;;;5070910;28;20618;-78
2022/12/09 10:21:57;;;;;;;18.70;13.93;;;10.20;99.90;;;;;;5068112;28;20526;-78
2022/12/09 10:24:32;;;;;;;20.35;13.50;;;10.30;99.90;;;;;;5069066;28;20446;-79
2022/12/09 10:27:01;;;;;;;21.27;14.27;;;10.40;99.90;;;;;;5072353;28;20032;-78
2022/12/09 10:29:47;;;;;;;17.70;12.23;;;10.40;99.90;;;;;;5070142;28;20021;-78
2022/12/09 10:32:19;;;;;;;19.70;13.20;;;10.40;99.90;;;;;;5068255;28;20452;-78
2022/12/09 10:34:46;;;;;;;18.42;12.90;;;10.50;99.90;;;;;;5073606;28;20492;-78
2022/12/09 10:37:31;;;;;;;16.52;12.60;;;10.50;99.90;;;;;;5071748;28;20058;-78
2022/12/09 10:40:09;;;;;;;17.50;12.55;;;10.50;99.90;;;;;;5073922;28;20047;-78
2022/12/09 10:45:48;;;;;;;17.42;11.73;;;10.60;99.90;;;;;;5070722;28;20071;-78
2022/12/09 10:48:36;;;;;;;15.73;11.57;;;10.60;99.90;;;;;;5071927;28;20124;-78
2022/12/09 10:51:20;;;;;;;19.65;13.45;;;10.60;99.90;;;;;;5072925;28;20040;-78
2022/12/09 10:53:57;;;;;;;16.77;12.20;;;10.60;99.90;;;;;;5068190;28;20056;-78
2022/12/09 10:56:29;;;;;;;19.65;13.68;;;10.70;99.90;;;;;;5069956;28;20055;-77
2022/12/09 10:59:18;;;;;;;17.17;13.57;;;10.70;99.90;;;;;;5068492;28;20041;-79
2022/12/09 11:01:53;;;;;;;15.75;12.93;;;10.60;99.90;;;;;;5066516;28;20564;-79
2022/12/09 11:04:34;;;;;;;17.90;12.48;;;10.60;99.90;;;;;;5070819;28;20020;-79
2022/12/09 11:07:12;;;;;;;16.65;12.73;;;10.60;99.90;;;;;;5069209;28;20033;-79
2022/12/09 11:09:45;;;;;;;20.60;13.10;;;10.60;99.90;;;;;;5070592;28;20029;-79
2022/12/09 11:12:26;;;;;;;17.38;12.38;;;10.70;99.90;;;;;;5069274;28;20028;-79
2022/12/09 11:15:02;;;;;;;16.67;12.73;;;10.70;99.90;;;;;;5069312;28;20025;-79
2022/12/09 11:17:38;;;;;;;19.58;14.90;;;10.70;99.90;;;;;;5071032;28;20084;-79
2022/12/09 11:20:04;;;;;;;16.30;12.55;;;10.60;99.90;;;;;;5081433;28;20047;-79
2022/12/09 11:22:43;;;;;;;19.88;14.05;;;10.70;99.90;;;;;;5069769;28;20028;-79
2022/12/09 11:25:25;;;;;;;17.15;13.05;;;10.50;99.90;;;;;;5070645;28;20112;-78
2022/12/09 11:28:16;;;;;;;19.67;13.82;;;10.60;99.90;;;;;;5071090;28;20029;-79
2022/12/09 11:30:55;;;;;;;16.98;13.32;;;10.60;99.90;;;;;;5067527;28;20033;-79
2022/12/09 11:33:26;;;;;;;38.78;24.40;;;10.60;99.90;;;;;;5065453;28;20130;-78
2022/12/09 11:35:54;;;;;;;;;;;10.60;99.90;;;;;;5071036;28;20082;-78
2022/12/09 11:38:28;;;;;;;21.75;15.60;;;10.70;99.90;;;;;;5075180;28;20003;-79
2022/12/09 11:44:35;;;;;;;18.08;14.00;;;10.90;99.90;;;;;;5071910;28;20091;-79
2022/12/09 11:47:20;;;;;;;21.65;15.70;;;11.10;99.90;;;;;;5068828;28;20044;-79
2022/12/09 11:49:54;;;;;;;177.90;61.67;;;11.20;99.90;;;;;;5075082;28;20021;-78
2022/12/09 11:52:29;;;;;;;352.67;113.15;;;11.40;99.90;;;;;;5072814;28;20397;-77
2022/12/09 11:55:03;;;;;;;34.72;18.45;;;11.50;99.90;;;;;;5076223;28;20032;-77
2022/12/09 11:57:40;;;;;;;22.92;14.40;;;11.60;99.90;;;;;;5072671;28;20032;-77
2022/12/09 12:00:16;;;;;;;19.73;14.18;;;11.60;99.90;;;;;;5073722;28;20039;-78
2022/12/09 12:02:48;;;;;;;32.13;16.90;;;11.80;99.90;;;;;;5075986;28;20028;-78
2022/12/09 12:05:21;;;;;;;61.53;24.75;;;11.80;99.90;;;;;;5075626;28;20044;-80
2022/12/09 12:08:51;;;;;;;100.22;36.58;;;11.80;99.90;;;;;;5070446;28;20036;-78
2022/12/09 12:11:24;;;;;;;22.77;11.27;;;11.80;99.90;;;;;;5012034;28;20191;-78
2022/12/09 12:14:00;;;;;;;26.92;13.93;;;11.70;99.90;;;;;;5063625;28;20025;-78
2022/12/09 12:16:51;;;;;;;17.27;10.27;;;11.70;99.90;;;;;;5072766;28;20037;-78
2022/12/09 12:19:33;;;;;;;14.07;10.50;;;11.60;99.90;;;;;;5075502;28;20062;-78
2022/12/09 12:22:27;;;;;;;15.00;11.25;;;11.60;99.90;;;;;;5074699;28;20040;-78
2022/12/09 12:25:04;;;;;;;20.15;12.05;;;11.60;99.90;;;;;;5071360;28;20505;-78
2022/12/09 12:27:48;;;;;;;20.00;12.10;;;11.60;99.90;;;;;;5074882;28;20052;-77
2022/12/09 12:30:19;;;;;;;16.23;12.13;;;11.50;99.90;;;;;;5072797;28;20027;-78
2022/12/09 12:33:06;;;;;;;21.70;12.30;;;11.50;99.90;;;;;;5068714;28;20067;-78
2022/12/09 12:35:52;;;;;;;22.98;13.90;;;11.40;99.90;;;;;;5072609;28;20094;-79
2022/12/09 12:38:56;;;;;;;13.90;11.05;;;11.40;99.90;;;;;;5068504;28;20028;-79
2022/12/09 12:41:31;;;;;;;15.30;10.82;;;11.50;99.90;;;;;;5071378;28;20051;-78
2022/12/09 12:47:24;;;;;;;22.35;16.23;;;11.60;99.90;;;;;;5069442;28;20036;-79
2022/12/09 12:50:01;;;;;;;35.08;25.15;;;11.70;99.90;;;;;;5071714;28;20028;-78
2022/12/09 12:52:29;;;;;;;20.95;14.15;;;11.70;99.90;;;;;;5071389;28;20025;-78
2022/12/09 12:55:29;;;;;;;19.77;10.63;;;11.80;99.90;;;;;;5072908;28;20443;-79
2022/12/09 12:58:18;;;;;;;15.47;11.30;;;11.90;99.90;;;;;;5083952;28;20515;-79
2022/12/09 13:00:54;;;;;;;12.35;10.48;;;11.90;99.90;;;;;;5073441;28;20303;-78
2022/12/09 13:03:47;;;;;;;14.73;10.32;;;12.00;99.90;;;;;;5069410;28;20035;-79